createdAt,value
2022-08-10T00:00:04.768Z,0.00
2022-08-10T00:01:04.714Z,0.00
2022-08-10T00:02:05.278Z,0.00
2022-08-10T00:03:05.147Z,0.00
2022-08-10T00:04:05.091Z,0.00
2022-08-10T00:05:05.048Z,0.00
2022-08-10T00:06:05.240Z,0.00
2022-08-10T00:07:06.110Z,0.00
2022-08-10T00:08:05.717Z,0.00
2022-08-10T00:09:05.573Z,0.00
2022-08-10T00:10:05.441Z,0.00
2022-08-10T00:11:05.306Z,0.00
2022-08-10T00:11:15.347Z,0.00
2022-08-10T00:12:02.997Z,0.00
2022-08-10T00:13:02.804Z,0.00
2022-08-10T00:14:02.703Z,0.00
2022-08-10T00:15:02.666Z,0.00
2022-08-10T00:16:02.440Z,0.00
2022-08-10T00:17:02.996Z,0.00
2022-08-10T00:18:03.589Z,0.00
2022-08-10T00:19:03.058Z,0.00
2022-08-10T00:20:08.762Z,0.00
2022-08-10T00:21:03.638Z,0.00
2022-08-10T00:22:02.315Z,0.00
2022-08-10T00:23:02.209Z,0.00
2022-08-10T00:24:02.844Z,0.00
2022-08-10T00:25:02.500Z,0.00
2022-08-10T00:26:02.409Z,0.00
2022-08-10T00:27:52.401Z,0.00
2022-08-10T00:28:04.249Z,0.00
2022-08-10T00:29:03.195Z,0.00
2022-08-10T00:30:03.457Z,0.00
2022-08-10T00:31:03.418Z,0.00
2022-08-10T00:32:02.403Z,0.00
2022-08-10T00:33:02.318Z,0.00
2022-08-10T00:34:02.845Z,0.00
2022-08-10T00:35:02.533Z,0.00
2022-08-10T00:36:02.429Z,0.00
2022-08-10T00:37:03.133Z,0.00
2022-08-10T00:38:03.039Z,0.00
2022-08-10T00:39:02.973Z,0.00
2022-08-10T00:40:02.872Z,0.00
2022-08-10T00:41:03.434Z,0.00
2022-08-10T00:42:07.623Z,0.00
2022-08-10T00:43:03.246Z,0.00
2022-08-10T00:44:03.584Z,0.00
2022-08-10T00:45:03.332Z,0.00
2022-08-10T00:46:03.234Z,0.00
2022-08-10T00:47:02.888Z,0.00
2022-08-10T00:48:03.035Z,0.00
2022-08-10T00:49:03.318Z,0.00
2022-08-10T00:50:03.147Z,0.00
2022-08-10T00:51:03.027Z,0.00
2022-08-10T00:52:02.990Z,0.00
2022-08-10T00:53:03.015Z,0.00
2022-08-10T00:54:03.025Z,0.00
2022-08-10T00:55:03.025Z,0.00
2022-08-10T00:56:35.828Z,0.00
2022-08-10T00:57:15.988Z,0.00
2022-08-10T00:58:03.778Z,0.00
2022-08-10T00:59:03.396Z,0.00
2022-08-10T01:00:03.307Z,0.00
2022-08-10T01:01:03.329Z,0.00
2022-08-10T01:02:08.883Z,0.00
2022-08-10T01:03:02.907Z,0.00
2022-08-10T01:04:39.692Z,0.00
2022-08-10T01:05:03.148Z,0.00
2022-08-10T01:06:03.172Z,0.00
2022-08-10T01:07:03.090Z,0.00
2022-08-10T01:08:02.999Z,0.00
2022-08-10T01:09:02.892Z,0.00
2022-08-10T01:10:03.340Z,0.00
2022-08-10T01:11:03.219Z,0.00
2022-08-10T01:12:37.407Z,0.00
2022-08-10T01:13:02.677Z,0.00
2022-08-10T01:14:02.551Z,0.00
2022-08-10T01:15:03.118Z,0.00
2022-08-10T01:16:02.679Z,0.00
2022-08-10T01:17:03.282Z,0.00
2022-08-10T01:18:02.965Z,0.00
2022-08-10T01:19:03.539Z,0.00
2022-08-10T01:20:03.412Z,0.00
2022-08-10T01:21:03.316Z,0.00
2022-08-10T01:22:02.631Z,0.00
2022-08-10T01:23:02.546Z,0.00
2022-08-10T01:24:02.713Z,0.00
2022-08-10T01:25:02.741Z,0.00
2022-08-10T01:26:11.779Z,0.00
2022-08-10T01:27:02.986Z,0.00
2022-08-10T01:28:03.175Z,0.00
2022-08-10T01:29:02.940Z,0.00
2022-08-10T01:30:03.482Z,0.00
2022-08-10T01:31:03.117Z,0.00
2022-08-10T01:32:02.728Z,0.00
2022-08-10T01:33:03.171Z,0.00
2022-08-10T01:34:02.945Z,0.00
2022-08-10T01:35:02.663Z,0.00
2022-08-10T01:36:02.545Z,0.00
2022-08-10T01:37:03.116Z,0.00
2022-08-10T01:38:03.216Z,0.00
2022-08-10T01:39:03.610Z,0.00
2022-08-10T01:40:02.854Z,0.00
2022-08-10T01:41:02.925Z,0.00
2022-08-10T01:42:03.634Z,0.00
2022-08-10T01:43:08.486Z,0.00
2022-08-10T01:44:03.901Z,0.00
2022-08-10T01:45:03.576Z,0.00
2022-08-10T01:46:03.456Z,0.00
2022-08-10T01:47:03.212Z,0.00
2022-08-10T01:48:03.027Z,0.00
2022-08-10T01:49:02.969Z,0.00
2022-08-10T01:50:02.919Z,0.00
2022-08-10T01:51:02.887Z,0.00
2022-08-10T01:52:03.555Z,0.00
2022-08-10T01:53:03.337Z,0.00
2022-08-10T01:54:03.185Z,0.00
2022-08-10T01:55:03.103Z,0.00
2022-08-10T01:56:03.073Z,0.00
2022-08-10T01:57:03.776Z,0.00
2022-08-10T01:58:03.411Z,0.00
2022-08-10T01:59:03.218Z,0.00
2022-08-10T02:00:03.561Z,0.00
2022-08-10T02:01:03.818Z,0.00
2022-08-10T02:02:02.085Z,0.00
2022-08-10T02:03:02.007Z,0.00
2022-08-10T02:04:05.740Z,0.00
2022-08-10T02:05:01.743Z,0.00
2022-08-10T02:06:02.312Z,0.00
2022-08-10T02:07:02.610Z,0.00
2022-08-10T02:08:02.539Z,0.00
2022-08-10T02:09:06.606Z,0.00
2022-08-10T02:10:02.344Z,0.00
2022-08-10T02:11:02.215Z,0.00
2022-08-10T02:12:07.519Z,0.00
2022-08-10T02:13:02.663Z,0.00
2022-08-10T02:14:02.612Z,0.00
2022-08-10T02:15:02.568Z,0.00
2022-08-10T02:16:02.626Z,0.00
2022-08-10T02:17:02.218Z,0.00
2022-08-10T02:18:02.333Z,0.00
2022-08-10T02:19:01.792Z,0.00
2022-08-10T02:20:01.688Z,0.00
2022-08-10T02:21:02.260Z,0.00
2022-08-10T02:22:35.797Z,0.00
2022-08-10T02:23:02.248Z,0.00
2022-08-10T02:24:02.257Z,0.00
2022-08-10T02:25:02.156Z,0.00
2022-08-10T02:26:02.143Z,0.00
2022-08-10T02:27:02.060Z,0.00
2022-08-10T02:28:02.384Z,0.00
2022-08-10T02:29:02.294Z,0.00
2022-08-10T02:30:02.141Z,0.00
2022-08-10T02:31:02.655Z,0.00
2022-08-10T02:32:02.283Z,0.00
2022-08-10T02:33:02.513Z,0.00
2022-08-10T02:34:02.861Z,0.00
2022-08-10T02:35:03.019Z,0.00
2022-08-10T02:36:02.801Z,0.00
2022-08-10T02:37:01.777Z,0.00
2022-08-10T02:38:01.711Z,0.00
2022-08-10T02:39:01.705Z,0.00
2022-08-10T02:40:02.322Z,0.00
2022-08-10T02:45:02.061Z,0.00
2022-08-10T02:45:14.467Z,0.00
2022-08-10T02:45:20.365Z,0.00
2022-08-10T02:45:21.099Z,0.00
2022-08-10T02:45:21.567Z,0.00
2022-08-10T02:46:02.500Z,0.00
2022-08-10T02:47:02.402Z,0.00
2022-08-10T02:48:03.108Z,0.00
2022-08-10T02:49:02.742Z,0.00
2022-08-10T02:50:02.695Z,0.00
2022-08-10T02:51:02.473Z,0.00
2022-08-10T02:52:06.465Z,0.00
2022-08-10T02:53:02.395Z,0.00
2022-08-10T02:54:02.237Z,0.00
2022-08-10T02:55:06.136Z,0.00
2022-08-10T02:56:02.239Z,0.00
2022-08-10T02:57:02.230Z,0.00
2022-08-10T02:58:16.593Z,0.00
2022-08-10T02:59:02.069Z,0.00
2022-08-10T03:00:02.858Z,0.00
2022-08-10T03:01:02.684Z,0.00
2022-08-10T03:02:02.342Z,0.00
2022-08-10T03:03:02.221Z,0.00
2022-08-10T03:04:02.789Z,0.00
2022-08-10T03:05:02.689Z,0.00
2022-08-10T03:06:02.658Z,0.00
2022-08-10T03:07:02.615Z,0.00
2022-08-10T03:08:02.518Z,0.00
2022-08-10T03:09:03.113Z,0.00
2022-08-10T03:10:02.758Z,0.00
2022-08-10T03:11:02.572Z,0.00
2022-08-10T03:12:34.793Z,0.00
2022-08-10T03:13:02.129Z,0.00
2022-08-10T03:14:02.691Z,0.00
2022-08-10T03:15:02.306Z,0.00
2022-08-10T03:16:02.183Z,0.00
2022-08-10T03:17:02.815Z,0.00
2022-08-10T03:18:02.720Z,0.00
2022-08-10T03:19:02.772Z,0.00
2022-08-10T03:20:34.753Z,0.00
2022-08-10T03:21:03.261Z,0.00
2022-08-10T03:22:01.952Z,0.00
2022-08-10T03:23:01.826Z,0.00
2022-08-10T03:24:02.257Z,0.00
2022-08-10T03:25:02.243Z,0.00
2022-08-10T03:26:01.928Z,0.00
2022-08-10T03:27:02.296Z,0.00
2022-08-10T03:28:02.619Z,0.00
2022-08-10T03:29:02.548Z,0.00
2022-08-10T03:30:28.563Z,0.00
2022-08-10T03:31:02.414Z,0.00
2022-08-10T03:32:02.047Z,0.00
2022-08-10T03:33:01.939Z,4.00
2022-08-10T03:34:01.845Z,4.00
2022-08-10T03:35:02.461Z,0.00
2022-08-10T03:36:42.054Z,0.00
2022-08-10T03:37:02.402Z,4.00
2022-08-10T03:38:02.379Z,0.00
2022-08-10T03:39:02.386Z,4.00
2022-08-10T03:40:02.397Z,4.00
2022-08-10T03:41:02.312Z,4.00
2022-08-10T03:42:02.983Z,4.00
2022-08-10T03:43:03.085Z,4.00
2022-08-10T03:44:03.452Z,8.00
2022-08-10T03:45:03.201Z,8.00
2022-08-10T03:46:03.131Z,8.00
2022-08-10T03:47:02.179Z,12.00
2022-08-10T03:48:01.921Z,12.00
2022-08-10T03:49:02.127Z,16.00
2022-08-10T03:50:03.568Z,20.00
2022-08-10T03:51:01.902Z,24.00
2022-08-10T03:52:02.647Z,24.00
2022-08-10T03:53:02.634Z,24.00
2022-08-10T03:54:06.993Z,32.00
2022-08-10T03:55:02.581Z,36.00
2022-08-10T03:56:28.673Z,44.00
2022-08-10T03:57:02.583Z,48.00
2022-08-10T03:58:02.516Z,52.00
2022-08-10T03:59:02.455Z,60.00
2022-08-10T04:00:02.439Z,72.00
2022-08-10T04:01:02.780Z,76.00
2022-08-10T04:02:43.270Z,88.00
2022-08-10T04:03:02.466Z,96.00
2022-08-10T04:04:11.748Z,108.00
2022-08-10T04:05:02.484Z,120.00
2022-08-10T04:06:02.482Z,132.00
2022-08-10T04:07:03.263Z,148.00
2022-08-10T04:08:03.147Z,156.00
2022-08-10T04:09:03.225Z,176.00
2022-08-10T04:10:03.070Z,192.00
2022-08-10T04:11:03.145Z,208.00
2022-08-10T04:12:02.845Z,224.00
2022-08-10T04:13:03.039Z,244.00
2022-08-10T04:14:02.873Z,264.00
2022-08-10T04:15:02.847Z,284.00
2022-08-10T04:16:02.800Z,308.00
2022-08-10T04:17:03.551Z,332.00
2022-08-10T04:18:06.378Z,360.00
2022-08-10T04:19:03.362Z,384.00
2022-08-10T04:20:03.331Z,408.00
2022-08-10T04:21:03.312Z,440.00
2022-08-10T04:22:03.094Z,468.00
2022-08-10T04:23:03.134Z,496.00
2022-08-10T04:24:03.178Z,520.00
2022-08-10T04:25:02.665Z,556.00
2022-08-10T04:26:02.672Z,588.00
2022-08-10T04:27:03.398Z,620.00
2022-08-10T04:28:03.563Z,656.00
2022-08-10T04:29:03.318Z,692.00
2022-08-10T04:30:03.375Z,724.00
2022-08-10T04:31:03.386Z,760.00
2022-08-10T04:32:03.433Z,800.00
2022-08-10T04:33:03.654Z,832.00
2022-08-10T04:34:08.434Z,868.00
2022-08-10T04:35:03.459Z,904.00
2022-08-10T04:36:03.625Z,944.00
2022-08-10T04:37:08.153Z,972.00
2022-08-10T04:38:02.829Z,1008.00
2022-08-10T04:39:02.897Z,1040.00
2022-08-10T04:40:02.901Z,1072.00
2022-08-10T04:41:02.712Z,1100.00
2022-08-10T04:42:03.327Z,1136.00
2022-08-10T04:43:09.000Z,1164.00
2022-08-10T04:44:03.253Z,1192.00
2022-08-10T04:45:03.317Z,1224.00
2022-08-10T04:46:03.323Z,1256.00
2022-08-10T04:47:03.058Z,1292.00
2022-08-10T04:48:03.608Z,1328.00
2022-08-10T04:49:02.702Z,1364.00
2022-08-10T04:50:02.710Z,1412.00
2022-08-10T04:51:02.760Z,1452.00
2022-08-10T04:52:03.550Z,1496.00
2022-08-10T04:53:03.699Z,1540.00
2022-08-10T04:54:08.229Z,1588.00
2022-08-10T04:55:03.365Z,1636.00
2022-08-10T04:56:03.311Z,1688.00
2022-08-10T04:57:03.074Z,1740.00
2022-08-10T04:58:02.972Z,1792.00
2022-08-10T04:59:02.962Z,1844.00
2022-08-10T05:00:03.041Z,1896.00
2022-08-10T05:01:02.752Z,1944.00
2022-08-10T05:02:27.908Z,1992.00
2022-08-10T05:03:03.421Z,2036.00
2022-08-10T05:04:36.849Z,2076.00
2022-08-10T05:05:02.968Z,2116.00
2022-08-10T05:06:03.035Z,2156.00
2022-08-10T05:07:03.141Z,2200.00
2022-08-10T05:08:03.327Z,2244.00
2022-08-10T05:09:03.272Z,2284.00
2022-08-10T05:10:07.399Z,2328.00
2022-08-10T05:11:03.596Z,2352.00
2022-08-10T05:12:02.636Z,2384.00
2022-08-10T05:13:02.728Z,2408.00
2022-08-10T05:14:02.810Z,2428.00
2022-08-10T05:15:02.876Z,2452.00
2022-08-10T05:16:03.178Z,2468.00
2022-08-10T05:17:03.189Z,2484.00
2022-08-10T05:18:08.616Z,2488.00
2022-08-10T05:19:03.265Z,2512.00
2022-08-10T05:20:06.811Z,2556.00
2022-08-10T05:21:03.476Z,2580.00
2022-08-10T05:22:04.836Z,2676.00
2022-08-10T05:23:02.694Z,2812.00
2022-08-10T05:24:02.901Z,2780.00
2022-08-10T05:25:03.052Z,2732.00
2022-08-10T05:26:03.010Z,2800.00
2022-08-10T05:27:10.000Z,2916.00
2022-08-10T05:28:06.497Z,3000.00
2022-08-10T05:29:03.085Z,3136.00
2022-08-10T05:30:03.796Z,3368.00
2022-08-10T05:31:03.436Z,3712.00
2022-08-10T05:32:02.521Z,3984.00
2022-08-10T05:33:06.498Z,4108.00
2022-08-10T05:34:03.026Z,4240.00
2022-08-10T05:35:02.596Z,4368.00
2022-08-10T05:36:02.896Z,4480.00
2022-08-10T05:37:03.035Z,4616.00
2022-08-10T05:38:09.384Z,4736.00
2022-08-10T05:39:03.389Z,4840.00
2022-08-10T05:40:03.507Z,4948.00
2022-08-10T05:41:03.207Z,5124.00
2022-08-10T05:42:03.212Z,5328.00
2022-08-10T05:43:03.229Z,5528.00
2022-08-10T05:44:03.260Z,5728.00
2022-08-10T05:45:03.386Z,5944.00
2022-08-10T05:46:19.568Z,6100.00
2022-08-10T05:47:03.329Z,6188.00
2022-08-10T05:48:57.923Z,6752.00
2022-08-10T05:49:03.529Z,7104.00
2022-08-10T05:50:03.345Z,7304.00
2022-08-10T05:51:03.379Z,7472.00
2022-08-10T05:52:03.508Z,7576.00
2022-08-10T05:53:59.887Z,7704.00
2022-08-10T05:54:06.631Z,7912.00
2022-08-10T05:55:03.883Z,8092.00
2022-08-10T05:56:03.926Z,8308.00
2022-08-10T05:57:02.844Z,8484.00
2022-08-10T05:58:03.173Z,8744.00
2022-08-10T05:59:03.255Z,8960.00
2022-08-10T06:00:11.369Z,8440.00
2022-08-10T06:01:03.231Z,8496.00
2022-08-10T06:02:31.873Z,9144.00
2022-08-10T06:03:03.064Z,9240.00
2022-08-10T06:04:03.080Z,9360.00
2022-08-10T06:05:03.205Z,9420.00
2022-08-10T06:06:03.318Z,9476.00
2022-08-10T06:07:02.530Z,9588.00
2022-08-10T06:08:02.852Z,9720.00
2022-08-10T06:09:02.617Z,9792.00
2022-08-10T06:10:02.685Z,9948.00
2022-08-10T06:12:26.936Z,10328.00
2022-08-10T06:12:27.317Z,10128.00
2022-08-10T06:13:03.302Z,10476.00
2022-08-10T06:14:15.781Z,10644.00
2022-08-10T06:15:05.621Z,10792.00
2022-08-10T06:16:02.877Z,11012.00
2022-08-10T06:17:02.904Z,11320.00
2022-08-10T06:18:03.098Z,11652.00
2022-08-10T06:19:03.043Z,8624.00
2022-08-10T06:20:03.108Z,12184.00
2022-08-10T06:21:03.131Z,12184.00
2022-08-10T06:22:03.342Z,11412.00
2022-08-10T06:23:03.392Z,12888.00
2022-08-10T06:24:03.591Z,13312.00
2022-08-10T06:26:10.019Z,14688.00
2022-08-10T06:27:02.761Z,15392.00
2022-08-10T06:28:02.776Z,16224.00
2022-08-10T06:29:04.156Z,17056.00
2022-08-10T06:30:02.685Z,17696.00
2022-08-10T06:31:02.869Z,18368.00
2022-08-10T06:32:03.006Z,17408.00
2022-08-10T06:33:03.139Z,19008.00
2022-08-10T06:34:03.196Z,15648.00
2022-08-10T06:35:03.301Z,17824.00
2022-08-10T06:36:03.183Z,11408.00
2022-08-10T06:37:03.319Z,14432.00
2022-08-10T06:38:03.376Z,16000.00
2022-08-10T06:39:29.970Z,15424.00
2022-08-10T06:40:03.540Z,15040.00
2022-08-10T06:41:03.406Z,14880.00
2022-08-10T06:42:15.892Z,14496.00
2022-08-10T06:43:03.494Z,13856.00
2022-08-10T06:44:03.892Z,13264.00
2022-08-10T06:45:03.743Z,14048.00
2022-08-10T06:46:07.288Z,14400.00
2022-08-10T06:47:02.868Z,14784.00
2022-08-10T06:48:02.941Z,14528.00
2022-08-10T06:49:02.974Z,14024.00
2022-08-10T06:50:04.884Z,13428.00
2022-08-10T06:51:03.304Z,14068.00
2022-08-10T06:52:03.345Z,14100.00
2022-08-10T06:53:03.661Z,14108.00
2022-08-10T06:54:03.558Z,13860.00
2022-08-10T06:55:05.057Z,13492.00
2022-08-10T06:56:03.255Z,14720.00
2022-08-10T06:57:17.657Z,14912.00
2022-08-10T06:58:03.177Z,14080.00
2022-08-10T06:59:03.200Z,14752.00
2022-08-10T07:00:03.275Z,15104.00
2022-08-10T07:01:02.737Z,15424.00
2022-08-10T07:02:02.534Z,15616.00
2022-08-10T07:03:02.630Z,15616.00
2022-08-10T07:04:02.266Z,15456.00
2022-08-10T07:05:02.657Z,15744.00
2022-08-10T07:06:02.645Z,15936.00
2022-08-10T07:07:02.907Z,16032.00
2022-08-10T07:08:02.908Z,16096.00
2022-08-10T07:09:02.977Z,16160.00
2022-08-10T07:10:03.115Z,16256.00
2022-08-10T07:11:02.994Z,16384.00
2022-08-10T07:12:08.319Z,16544.00
2022-08-10T07:13:02.659Z,16672.00
2022-08-10T07:14:17.512Z,16800.00
2022-08-10T07:15:03.170Z,16832.00
2022-08-10T07:16:02.641Z,17024.00
2022-08-10T07:17:03.226Z,16896.00
2022-08-10T07:18:03.114Z,16608.00
2022-08-10T07:19:03.278Z,17216.00
2022-08-10T07:20:04.347Z,17248.00
2022-08-10T07:21:03.519Z,17440.00
2022-08-10T07:22:02.282Z,17600.00
2022-08-10T07:23:56.234Z,17760.00
2022-08-10T07:24:03.240Z,17888.00
2022-08-10T07:25:02.682Z,18144.00
2022-08-10T07:26:02.834Z,17344.00
2022-08-10T07:27:03.012Z,18048.00
2022-08-10T07:28:02.972Z,17792.00
2022-08-10T07:29:02.613Z,17472.00
2022-08-10T07:30:02.701Z,18304.00
2022-08-10T07:31:02.987Z,18208.00
2022-08-10T07:32:03.634Z,18240.00
2022-08-10T07:33:03.307Z,18112.00
2022-08-10T07:34:03.472Z,18560.00
2022-08-10T07:35:03.307Z,18528.00
2022-08-10T07:36:03.127Z,18688.00
2022-08-10T07:37:02.937Z,19040.00
2022-08-10T07:38:02.748Z,19232.00
2022-08-10T07:39:02.802Z,18784.00
2022-08-10T07:40:04.873Z,19520.00
2022-08-10T07:41:02.355Z,19520.00
2022-08-10T07:42:02.991Z,19776.00
2022-08-10T07:43:02.468Z,19808.00
2022-08-10T07:44:02.847Z,19968.00
2022-08-10T07:45:02.976Z,20160.00
2022-08-10T07:46:03.030Z,20352.00
2022-08-10T07:47:02.846Z,20544.00
2022-08-10T07:48:07.459Z,20544.00
2022-08-10T07:49:03.188Z,20544.00
2022-08-10T07:50:03.381Z,20800.00
2022-08-10T07:51:03.398Z,20928.00
2022-08-10T07:52:02.968Z,21184.00
2022-08-10T07:53:02.867Z,21216.00
2022-08-10T07:54:02.497Z,21408.00
2022-08-10T07:55:02.726Z,20480.00
2022-08-10T07:56:13.226Z,20384.00
2022-08-10T07:57:03.599Z,19872.00
2022-08-10T07:58:03.606Z,20352.00
2022-08-10T07:59:03.466Z,21408.00
2022-08-10T08:00:04.472Z,21600.00
2022-08-10T08:01:03.525Z,21440.00
2022-08-10T08:02:03.645Z,21888.00
2022-08-10T08:03:03.557Z,22208.00
2022-08-10T08:04:10.802Z,22112.00
2022-08-10T08:05:03.694Z,22016.00
2022-08-10T08:06:11.450Z,21504.00
2022-08-10T08:07:02.592Z,21728.00
2022-08-10T08:08:02.662Z,22016.00
2022-08-10T08:09:02.798Z,22528.00
2022-08-10T08:10:02.732Z,22432.00
2022-08-10T08:11:02.729Z,21664.00
2022-08-10T08:12:02.723Z,22880.00
2022-08-10T08:13:02.893Z,23040.00
2022-08-10T08:14:03.307Z,23168.00
2022-08-10T08:16:17.054Z,23392.00
2022-08-10T08:16:18.013Z,23360.00
2022-08-10T08:17:03.031Z,23328.00
2022-08-10T08:18:03.547Z,23520.00
2022-08-10T08:19:27.975Z,23552.00
2022-08-10T08:20:03.096Z,23648.00
2022-08-10T08:21:03.296Z,23808.00
2022-08-10T08:24:11.137Z,24032.00
2022-08-10T08:24:14.653Z,23840.00
2022-08-10T08:24:31.076Z,24160.00
2022-08-10T08:25:02.613Z,24128.00
2022-08-10T08:26:03.031Z,24192.00
2022-08-10T08:27:02.827Z,24224.00
2022-08-10T08:28:02.888Z,24256.00
2022-08-10T08:29:05.020Z,24192.00
2022-08-10T08:30:03.098Z,24320.00
2022-08-10T08:31:03.235Z,24320.00
2022-08-10T08:32:03.984Z,24288.00
2022-08-10T08:33:03.953Z,24576.00
2022-08-10T08:34:03.692Z,24576.00
2022-08-10T08:35:03.437Z,24928.00
2022-08-10T08:36:03.366Z,24992.00
2022-08-10T08:37:03.440Z,25088.00
2022-08-10T08:38:29.302Z,25120.00
2022-08-10T08:39:03.421Z,25216.00
2022-08-10T08:40:03.984Z,25376.00
2022-08-10T08:41:03.999Z,25440.00
2022-08-10T08:42:03.150Z,25568.00
2022-08-10T08:43:03.194Z,25664.00
2022-08-10T08:44:03.661Z,25728.00
2022-08-10T08:45:03.428Z,25888.00
2022-08-10T08:46:03.558Z,25984.00
2022-08-10T08:47:03.403Z,26016.00
2022-08-10T08:48:06.334Z,26112.00
2022-08-10T08:49:03.903Z,26304.00
2022-08-10T08:50:07.635Z,26336.00
2022-08-10T08:51:03.785Z,26208.00
2022-08-10T08:52:07.063Z,26592.00
2022-08-10T08:53:02.976Z,26720.00
2022-08-10T08:54:04.110Z,26528.00
2022-08-10T08:55:03.368Z,27008.00
2022-08-10T08:56:06.953Z,27136.00
2022-08-10T08:57:03.238Z,27392.00
2022-08-10T08:58:03.391Z,27456.00
2022-08-10T08:59:03.371Z,27424.00
2022-08-10T09:00:03.320Z,27008.00
2022-08-10T09:01:03.550Z,26976.00
2022-08-10T09:02:02.523Z,27360.00
2022-08-10T09:03:02.620Z,27520.00
2022-08-10T09:04:02.750Z,27872.00
2022-08-10T09:05:02.902Z,27776.00
2022-08-10T09:06:02.827Z,27904.00
2022-08-10T09:07:03.125Z,27360.00
2022-08-10T09:08:03.426Z,28288.00
2022-08-10T09:09:03.478Z,28448.00
2022-08-10T09:10:03.492Z,28416.00
2022-08-10T09:11:03.314Z,28512.00
2022-08-10T09:12:02.722Z,28416.00
2022-08-10T09:13:02.714Z,28576.00
2022-08-10T09:14:02.679Z,28672.00
2022-08-10T09:15:02.563Z,28800.00
2022-08-10T09:16:02.691Z,28992.00
2022-08-10T09:17:03.359Z,28992.00
2022-08-10T09:18:03.500Z,29088.00
2022-08-10T09:19:03.580Z,29312.00
2022-08-10T09:20:03.695Z,29344.00
2022-08-10T09:21:03.145Z,29280.00
2022-08-10T09:22:13.196Z,29408.00
2022-08-10T09:23:02.866Z,29536.00
2022-08-10T09:24:05.773Z,29632.00
2022-08-10T09:25:03.346Z,29760.00
2022-08-10T09:26:03.225Z,29696.00
2022-08-10T09:27:03.309Z,29888.00
2022-08-10T09:28:03.444Z,29920.00
2022-08-10T09:29:13.273Z,30144.00
2022-08-10T09:30:03.479Z,30080.00
2022-08-10T09:31:21.360Z,30240.00
2022-08-10T09:33:07.671Z,30304.00
2022-08-10T09:36:20.092Z,30432.00
2022-08-10T09:36:20.305Z,30336.00
2022-08-10T09:36:22.103Z,30624.00
2022-08-10T09:36:26.579Z,30464.00
2022-08-10T09:37:02.858Z,30752.00
2022-08-10T09:38:03.332Z,31008.00
2022-08-10T09:39:02.975Z,30944.00
2022-08-10T09:40:56.715Z,30880.00
2022-08-10T09:41:06.331Z,31104.00
2022-08-10T09:42:03.356Z,31072.00
2022-08-10T09:43:25.599Z,31168.00
2022-08-10T09:44:03.454Z,31264.00
2022-08-10T09:45:03.608Z,31360.00
2022-08-10T09:46:03.420Z,31360.00
2022-08-10T09:47:03.449Z,31328.00
2022-08-10T09:48:03.565Z,31616.00
2022-08-10T09:49:03.570Z,31744.00
2022-08-10T09:50:04.915Z,31552.00
2022-08-10T09:52:03.498Z,31776.00
2022-08-10T09:53:03.516Z,31648.00
2022-08-10T09:54:03.700Z,31840.00
2022-08-10T09:55:03.425Z,31904.00
2022-08-10T09:56:17.633Z,32032.00
2022-08-10T09:57:43.515Z,32352.00
2022-08-10T09:58:03.908Z,33120.00
2022-08-10T09:59:59.564Z,32640.00
2022-08-10T10:00:03.525Z,32448.00
2022-08-10T10:01:04.031Z,32288.00
2022-08-10T10:02:04.471Z,32320.00
2022-08-10T10:03:02.749Z,32512.00
2022-08-10T10:04:02.638Z,32480.00
2022-08-10T10:05:02.870Z,32416.00
2022-08-10T10:06:02.997Z,32288.00
2022-08-10T10:07:03.204Z,32832.00
2022-08-10T10:08:03.360Z,32192.00
2022-08-10T10:09:10.517Z,32992.00
2022-08-10T10:10:02.992Z,32992.00
2022-08-10T10:11:03.319Z,32416.00
2022-08-10T10:12:05.258Z,33248.00
2022-08-10T10:13:03.481Z,29056.00
2022-08-10T10:14:06.424Z,32064.00
2022-08-10T10:15:02.968Z,30528.00
2022-08-10T10:16:03.115Z,30240.00
2022-08-10T10:17:02.943Z,30432.00
2022-08-10T10:18:03.042Z,29984.00
2022-08-10T10:19:02.565Z,29888.00
2022-08-10T10:20:02.714Z,28064.00
2022-08-10T10:21:02.654Z,27936.00
2022-08-10T10:22:03.178Z,28032.00
2022-08-10T10:23:02.805Z,27488.00
2022-08-10T10:24:21.127Z,28320.00
2022-08-10T10:25:21.079Z,27200.00
2022-08-10T10:26:08.461Z,26976.00
2022-08-10T10:27:03.551Z,23776.00
2022-08-10T10:28:03.211Z,29216.00
2022-08-10T10:30:03.268Z,25184.00
2022-08-10T10:31:03.439Z,22528.00
2022-08-10T10:32:03.571Z,24032.00
2022-08-10T10:33:03.749Z,23808.00
2022-08-10T10:34:03.322Z,23264.00
2022-08-10T10:35:03.150Z,19584.00
2022-08-10T10:36:03.390Z,23008.00
2022-08-10T10:37:04.102Z,21920.00
2022-08-10T10:38:04.291Z,23072.00
2022-08-10T10:39:04.097Z,23872.00
2022-08-10T10:40:04.018Z,17728.00
2022-08-10T10:41:04.069Z,14592.00
2022-08-10T10:42:04.984Z,13892.00
2022-08-10T10:43:03.896Z,12232.00
2022-08-10T10:44:03.408Z,10032.00
2022-08-10T10:45:03.778Z,10076.00
2022-08-10T10:46:03.837Z,17792.00
2022-08-10T10:47:03.578Z,8512.00
2022-08-10T10:48:03.052Z,8280.00
2022-08-10T10:49:03.346Z,7136.00
2022-08-10T10:50:03.402Z,27808.00
2022-08-10T10:51:07.157Z,7440.00
2022-08-10T10:52:04.305Z,7252.00
2022-08-10T10:53:04.555Z,7584.00
2022-08-10T10:54:04.060Z,7000.00
2022-08-10T10:55:03.780Z,19168.00
2022-08-10T10:56:15.516Z,6780.00
2022-08-10T10:57:03.628Z,6904.00
2022-08-10T10:58:03.568Z,7024.00
2022-08-10T10:59:53.371Z,9152.00
2022-08-10T11:00:03.548Z,6628.00
2022-08-10T11:01:03.089Z,6584.00
2022-08-10T11:02:02.526Z,6600.00
2022-08-10T11:03:02.682Z,6476.00
2022-08-10T11:04:02.761Z,6308.00
2022-08-10T11:05:02.755Z,6316.00
2022-08-10T11:06:02.827Z,6296.00
2022-08-10T11:07:03.010Z,6336.00
2022-08-10T11:08:03.133Z,6360.00
2022-08-10T11:09:03.257Z,7380.00
2022-08-10T11:10:19.770Z,6340.00
2022-08-10T11:11:03.319Z,6208.00
2022-08-10T11:12:04.847Z,6504.00
2022-08-10T11:14:23.244Z,6620.00
2022-08-10T11:14:25.316Z,6712.00
2022-08-10T11:15:03.643Z,6764.00
2022-08-10T11:16:03.933Z,6928.00
2022-08-10T11:17:03.958Z,7124.00
2022-08-10T11:18:03.110Z,6784.00
2022-08-10T11:19:03.199Z,21632.00
2022-08-10T11:20:04.179Z,7268.00
2022-08-10T11:21:03.155Z,8268.00
2022-08-10T11:22:03.263Z,9100.00
2022-08-10T11:23:03.903Z,10296.00
2022-08-10T11:24:48.583Z,8392.00
2022-08-10T11:25:04.149Z,9360.00
2022-08-10T11:26:03.929Z,12536.00
2022-08-10T11:27:03.971Z,13368.00
2022-08-10T11:28:03.828Z,18592.00
2022-08-10T11:29:03.710Z,22688.00
2022-08-10T11:30:03.182Z,19392.00
2022-08-10T11:31:03.341Z,24800.00
2022-08-10T11:32:03.495Z,18400.00
2022-08-10T11:33:03.179Z,24736.00
2022-08-10T11:34:47.453Z,24000.00
2022-08-10T11:35:11.626Z,26560.00
2022-08-10T11:36:03.195Z,27136.00
2022-08-10T11:37:03.414Z,27584.00
2022-08-10T11:38:29.620Z,27232.00
2022-08-10T11:39:18.729Z,28384.00
2022-08-10T11:40:03.762Z,28256.00
2022-08-10T11:41:12.836Z,27776.00
2022-08-10T11:42:11.509Z,28064.00
2022-08-10T11:43:03.391Z,26656.00
2022-08-10T11:44:03.530Z,29120.00
2022-08-10T11:45:03.614Z,30560.00
2022-08-10T11:46:07.860Z,27360.00
2022-08-10T11:47:03.886Z,27808.00
2022-08-10T11:48:03.986Z,30080.00
2022-08-10T11:49:04.203Z,26112.00
2022-08-10T11:50:04.157Z,30336.00
2022-08-10T11:51:04.115Z,26976.00
2022-08-10T11:52:03.563Z,27776.00
2022-08-10T11:53:03.523Z,27840.00
2022-08-10T11:54:03.284Z,23712.00
2022-08-10T11:55:03.388Z,22048.00
2022-08-10T11:56:04.604Z,23136.00
2022-08-10T11:57:03.594Z,23328.00
2022-08-10T11:58:04.184Z,24512.00
2022-08-10T11:59:16.431Z,23040.00
2022-08-10T12:00:04.141Z,20672.00
2022-08-10T12:01:03.767Z,26016.00
2022-08-10T12:02:04.255Z,21760.00
2022-08-10T12:03:02.403Z,10828.00
2022-08-10T12:04:02.511Z,13124.00
2022-08-10T12:05:02.775Z,12632.00
2022-08-10T12:06:02.998Z,14568.00
2022-08-10T12:07:02.533Z,11964.00
2022-08-10T12:10:02.350Z,11320.00
2022-08-10T12:10:09.139Z,10876.00
2022-08-10T12:10:13.105Z,9864.00
2022-08-10T12:11:02.944Z,26432.00
2022-08-10T12:12:03.128Z,12092.00
2022-08-10T12:13:02.486Z,10944.00
2022-08-10T12:14:20.874Z,9688.00
2022-08-10T12:15:02.752Z,8980.00
2022-08-10T12:16:05.536Z,9676.00
2022-08-10T12:17:02.637Z,9480.00
2022-08-10T12:18:02.814Z,9584.00
2022-08-10T12:19:03.384Z,9100.00
2022-08-10T12:20:03.898Z,9476.00